Meridian, MS (39305)

11:04 AM CDT on March 28, 2015 (GMT -0500)
3.2 NW Meridian (Pine Springs Rd.) | | Change Station
CLOSE
Current Station
Personal Weather Station
Location: Meridian, MS
Elevation: 328 ft
Nearby Weather Stations

Elev 328 ft 32.42 °N, 88.75 °W | Updated 0 second ago

Clear
Clear
49.1 °F
Feels Like 49 °F
N
1.0
Wind Variable Wind from ENE
Gusts 9.0 mph

Today
High -- | Low -- °F
--% Chance of Precip.
Yesterday
High -- | Low -- °F
Precip. -- in
6:48 AM 7:11 PM
Waxing Gibbous, 63% visible
Pressure 30.29 in
Visibility 10.0 miles
Clouds Clear
Windchill 49 °F
Dew Point 34 °F
Humidity 56%
Rainfall 0.00 in
Snow Depth Not available.
UV 7 out of 12
Pollen 9.10 out of 12
Air Quality Not available.
Flu Activity Not available.
METAR KMEI 281558Z 01003KT 10SM CLR 10/M03 A3029 RMK AO2 SLP256 T01001028

More Conditions Fewer Conditions

Pressure 30.29 in
Visibility 10.0 miles
Clouds Clear
Windchill 49 °F
Dew Point 34 °F
Humidity 56%
Rainfall 0.00 in
Snow Depth Not available.
UV 7 out of 12
Pollen 9.10 out of 12
Air Quality Not available.
Flu Activity Not available.
METAR KMEI 281558Z 01003KT 10SM CLR 10/M03 A3029 RMK AO2 SLP256 T01001028

More Conditions Fewer Conditions

10-Day Weather Forecast

Almanac

Astronomy

Mar. 28, 2015 Rise Set
Actual Time
Civil Twilight
Nautical Twilight
Astronomical Twilight
Moon
Length of Visible Light
Length of Day
Tomorrow will be .
, % of the Moon is Illuminated

Today's Extremes

State Highs State Lows

Community

WunderPhotos

Upload Photos

1,809,015 photos uploaded!

WunderBlogs® & News

Nearby

Air Quality

  Air Quality AQ Index Pollutant
Not available.

Snow Depth

Station Depth Elevation

Earthquake Activity

City Distance Mag. Time & Date
Minimum magnitude displayed is 2.5.

Coastal Water Temperatures

Place Temperature

Stations

Nearby Weather Stations

Station Location Temp. Windchill Dew Point Humidity Wind Precip. Elev Updated Type